sensor_id;sensor_type;location;lat;lon;timestamp;pressure;altitude;pressure_sealevel;temperature;humidity
7532;BME280;3807;49.030;8.714;2023-08-24T00:01:59;99461.84;;;28.70;47.05
7532;BME280;3807;49.030;8.714;2023-08-24T00:04:24;99452.34;;;28.69;47.14
7532;BME280;3807;49.030;8.714;2023-08-24T00:06:49;99449.06;;;28.67;47.12
7532;BME280;3807;49.030;8.714;2023-08-24T00:09:15;99440.88;;;28.62;47.18
7532;BME280;3807;49.030;8.714;2023-08-24T00:11:40;99442.03;;;28.59;47.19
7532;BME280;3807;49.030;8.714;2023-08-24T00:14:06;99440.38;;;28.58;47.20
7532;BME280;3807;49.030;8.714;2023-08-24T00:16:31;99438.41;;;28.52;47.24
7532;BME280;3807;49.030;8.714;2023-08-24T00:18:57;99431.72;;;28.49;47.34
7532;BME280;3807;49.030;8.714;2023-08-24T00:21:23;99428.44;;;28.47;47.44
7532;BME280;3807;49.030;8.714;2023-08-24T00:23:50;99418.44;;;28.43;47.51
7532;BME280;3807;49.030;8.714;2023-08-24T00:26:15;99414.53;;;28.39;47.53
7532;BME280;3807;49.030;8.714;2023-08-24T00:28:42;99413.16;;;28.35;47.62
7532;BME280;3807;49.030;8.714;2023-08-24T00:31:08;99403.84;;;28.32;47.64
7532;BME280;3807;49.030;8.714;2023-08-24T00:33:33;99404.31;;;28.27;47.69
7532;BME280;3807;49.030;8.714;2023-08-24T00:36:00;99406.44;;;28.24;47.74
7532;BME280;3807;49.030;8.714;2023-08-24T00:38:25;99404.31;;;28.19;47.77
7532;BME280;3807;49.030;8.714;2023-08-24T00:40:51;99400.22;;;28.17;47.75
7532;BME280;3807;49.030;8.714;2023-08-24T00:43:18;99398.78;;;28.14;47.91
7532;BME280;3807;49.030;8.714;2023-08-24T00:45:47;99387.94;;;28.09;47.93
7532;BME280;3807;49.030;8.714;2023-08-24T00:48:12;99394.16;;;28.08;47.90
7532;BME280;3807;49.030;8.714;2023-08-24T00:50:38;99390.06;;;28.06;47.94
7532;BME280;3807;49.030;8.714;2023-08-24T00:53:03;99384.50;;;28.00;48.05
7532;BME280;3807;49.030;8.714;2023-08-24T00:55:29;99383.84;;;27.98;48.05
7532;BME280;3807;49.030;8.714;2023-08-24T00:57:54;99370.56;;;27.92;48.16
7532;BME280;3807;49.030;8.714;2023-08-24T01:00:21;99375.81;;;27.92;48.16
7532;BME280;3807;49.030;8.714;2023-08-24T01:02:47;99371.72;;;27.89;48.15
7532;BME280;3807;49.030;8.714;2023-08-24T01:05:12;99377.63;;;27.83;48.28
7532;BME280;3807;49.030;8.714;2023-08-24T01:07:39;99376.78;;;27.83;48.28
7532;BME280;3807;49.030;8.714;2023-08-24T01:10:05;99377.13;;;27.80;48.31
7532;BME280;3807;49.030;8.714;2023-08-24T01:12:43;99383.47;;;27.77;48.35
7532;BME280;3807;49.030;8.714;2023-08-24T01:17:55;99395.38;;;27.71;48.38
7532;BME280;3807;49.030;8.714;2023-08-24T01:20:23;99400.91;;;27.68;48.46
7532;BME280;3807;49.030;8.714;2023-08-24T01:23:07;99403.88;;;27.65;48.49
7532;BME280;3807;49.030;8.714;2023-08-24T01:28:00;99408.09;;;27.58;48.61
7532;BME280;3807;49.030;8.714;2023-08-24T01:30:27;99411.03;;;27.55;48.63
7532;BME280;3807;49.030;8.714;2023-08-24T01:32:52;99411.34;;;27.52;48.70
7532;BME280;3807;49.030;8.714;2023-08-24T01:35:18;99419.50;;;27.49;48.72
7532;BME280;3807;49.030;8.714;2023-08-24T01:37:43;99421.31;;;27.48;48.80
7532;BME280;3807;49.030;8.714;2023-08-24T01:40:17;99415.72;;;27.43;48.82
7532;BME280;3807;49.030;8.714;2023-08-24T01:42:55;99417.00;;;27.39;48.93
7532;BME280;3807;49.030;8.714;2023-08-24T01:45:24;99412.91;;;27.37;48.94
7532;BME280;3807;49.030;8.714;2023-08-24T01:47:49;99413.22;;;27.34;49.01
7532;BME280;3807;49.030;8.714;2023-08-24T01:50:16;99418.78;;;27.30;49.15
7532;BME280;3807;49.030;8.714;2023-08-24T01:52:42;99413.84;;;27.27;49.20
7532;BME280;3807;49.030;8.714;2023-08-24T01:55:07;99416.78;;;27.24;49.23
7532;BME280;3807;49.030;8.714;2023-08-24T01:57:33;99411.69;;;27.23;49.23
7532;BME280;3807;49.030;8.714;2023-08-24T01:59:58;99410.38;;;27.19;49.26
7532;BME280;3807;49.030;8.714;2023-08-24T02:02:24;99407.09;;;27.17;49.32
7532;BME280;3807;49.030;8.714;2023-08-24T02:04:49;99396.12;;;27.13;49.34
7532;BME280;3807;49.030;8.714;2023-08-24T02:07:15;99403.81;;;27.15;49.38
7532;BME280;3807;49.030;8.714;2023-08-24T02:09:41;99402.78;;;27.07;49.37
7532;BME280;3807;49.030;8.714;2023-08-24T02:12:06;99403.75;;;27.06;49.41
7532;BME280;3807;49.030;8.714;2023-08-24T02:14:31;99394.59;;;27.02;49.54
7532;BME280;3807;49.030;8.714;2023-08-24T02:16:57;99398.31;;;27.00;49.53
7532;BME280;3807;49.030;8.714;2023-08-24T02:19:22;99401.25;;;26.97;49.54
7532;BME280;3807;49.030;8.714;2023-08-24T02:21:48;99390.28;;;26.93;49.62
7532;BME280;3807;49.030;8.714;2023-08-24T02:24:13;99387.97;;;26.90;49.64
7532;BME280;3807;49.030;8.714;2023-08-24T02:26:38;99385.34;;;26.90;49.67
7532;BME280;3807;49.030;8.714;2023-08-24T02:29:04;99394.47;;;26.86;49.74
7532;BME280;3807;49.030;8.714;2023-08-24T02:31:29;99392.16;;;26.83;49.81
7532;BME280;3807;49.030;8.714;2023-08-24T02:33:55;99388.06;;;26.80;49.85
7532;BME280;3807;49.030;8.714;2023-08-24T02:36:21;99391.50;;;26.81;49.80
7532;BME280;3807;49.030;8.714;2023-08-24T02:38:46;99391.66;;;26.79;49.84
7532;BME280;3807;49.030;8.714;2023-08-24T02:41:11;99392.94;;;26.75;49.96
7532;BME280;3807;49.030;8.714;2023-08-24T02:43:39;99389.31;;;26.68;50.01
7532;BME280;3807;49.030;8.714;2023-08-24T02:46:08;99395.34;;;26.69;50.00
7532;BME280;3807;49.030;8.714;2023-08-24T02:48:35;99399.75;;;26.68;50.03
7532;BME280;3807;49.030;8.714;2023-08-24T02:51:02;99398.25;;;26.66;50.07
7532;BME280;3807;49.030;8.714;2023-08-24T02:53:28;99392.53;;;26.62;50.11
7532;BME280;3807;49.030;8.714;2023-08-24T02:55:55;99379.75;;;26.59;50.15
7532;BME280;3807;49.030;8.714;2023-08-24T02:58:20;99378.94;;;26.58;50.06
7532;BME280;3807;49.030;8.714;2023-08-24T03:00:46;99370.59;;;26.55;50.17
7532;BME280;3807;49.030;8.714;2023-08-24T03:03:13;99360.44;;;26.52;50.17
7532;BME280;3807;49.030;8.714;2023-08-24T03:05:39;99354.53;;;26.50;50.22
7532;BME280;3807;49.030;8.714;2023-08-24T03:08:05;99349.75;;;26.45;50.31
7532;BME280;3807;49.030;8.714;2023-08-24T03:10:34;99350.75;;;26.44;50.30
7532;BME280;3807;49.030;8.714;2023-08-24T03:13:00;99355.28;;;26.42;50.38
7532;BME280;3807;49.030;8.714;2023-08-24T03:15:25;99352.00;;;26.40;50.33
7532;BME280;3807;49.030;8.714;2023-08-24T03:17:50;99341.88;;;26.37;50.39
7532;BME280;3807;49.030;8.714;2023-08-24T03:20:18;99327.31;;;26.34;50.46
7532;BME280;3807;49.030;8.714;2023-08-24T03:22:43;99319.78;;;26.31;50.57
7532;BME280;3807;49.030;8.714;2023-08-24T03:25:09;99322.69;;;26.28;50.60
7532;BME280;3807;49.030;8.714;2023-08-24T03:27:34;99316.66;;;26.28;50.61
7532;BME280;3807;49.030;8.714;2023-08-24T03:30:00;99328.22;;;26.25;50.69
7532;BME280;3807;49.030;8.714;2023-08-24T03:32:26;99328.56;;;26.22;50.73
7532;BME280;3807;49.030;8.714;2023-08-24T03:34:58;99332.09;;;26.21;50.82
7532;BME280;3807;49.030;8.714;2023-08-24T03:37:23;99332.41;;;26.18;50.90
7532;BME280;3807;49.030;8.714;2023-08-24T03:39:48;99324.06;;;26.14;50.92
7532;BME280;3807;49.030;8.714;2023-08-24T03:42:14;99315.28;;;26.16;50.92
7532;BME280;3807;49.030;8.714;2023-08-24T03:44:39;99300.06;;;26.11;51.05
7532;BME280;3807;49.030;8.714;2023-08-24T03:47:04;99303.62;;;26.10;51.04
7532;BME280;3807;49.030;8.714;2023-08-24T03:49:30;99303.12;;;26.06;51.11
7532;BME280;3807;49.030;8.714;2023-08-24T03:51:55;99303.94;;;26.07;51.08
7532;BME280;3807;49.030;8.714;2023-08-24T03:54:20;99296.56;;;26.02;51.26
7532;BME280;3807;49.030;8.714;2023-08-24T03:56:46;99301.09;;;26.00;51.29
7532;BME280;3807;49.030;8.714;2023-08-24T03:59:11;99293.56;;;25.97;51.29
7532;BME280;3807;49.030;8.714;2023-08-24T04:01:37;99285.09;;;25.95;51.36
7532;BME280;3807;49.030;8.714;2023-08-24T04:04:02;99280.00;;;25.94;51.35
7532;BME280;3807;49.030;8.714;2023-08-24T04:06:28;99278.38;;;25.93;51.46
7532;BME280;3807;49.030;8.714;2023-08-24T04:08:53;99268.25;;;25.89;51.39
7532;BME280;3807;49.030;8.714;2023-08-24T04:11:19;99262.37;;;25.87;51.48
7532;BME280;3807;49.030;8.714;2023-08-24T04:13:44;99261.84;;;25.84;51.55
7532;BME280;3807;49.030;8.714;2023-08-24T04:16:09;99268.84;;;25.83;51.57
7532;BME280;3807;49.030;8.714;2023-08-24T04:18:34;99273.25;;;25.83;51.53
7532;BME280;3807;49.030;8.714;2023-08-24T04:21:00;99272.59;;;25.81;51.63
7532;BME280;3807;49.030;8.714;2023-08-24T04:23:26;99272.03;;;25.77;51.72
7532;BME280;3807;49.030;8.714;2023-08-24T04:25:52;99284.91;;;25.79;51.72
7532;BME280;3807;49.030;8.714;2023-08-24T04:28:18;99285.22;;;25.76;51.77
7532;BME280;3807;49.030;8.714;2023-08-24T04:30:51;99285.37;;;25.74;51.79
7532;BME280;3807;49.030;8.714;2023-08-24T04:33:16;99282.75;;;25.74;51.73
7532;BME280;3807;49.030;8.714;2023-08-24T04:35:42;99289.38;;;25.69;51.86
7532;BME280;3807;49.030;8.714;2023-08-24T04:38:07;99281.72;;;25.67;51.90
7532;BME280;3807;49.030;8.714;2023-08-24T04:40:49;99281.03;;;25.65;51.99
7532;BME280;3807;49.030;8.714;2023-08-24T04:43:15;99280.22;;;25.64;52.01
7532;BME280;3807;49.030;8.714;2023-08-24T04:45:41;99263.88;;;25.62;52.08
7532;BME280;3807;49.030;8.714;2023-08-24T04:48:06;99266.50;;;25.62;52.09
7532;BME280;3807;49.030;8.714;2023-08-24T04:50:31;99265.84;;;25.60;52.02
7532;BME280;3807;49.030;8.714;2023-08-24T04:52:56;99265.16;;;25.58;52.02
7532;BME280;3807;49.030;8.714;2023-08-24T04:55:22;99262.03;;;25.55;52.13
7532;BME280;3807;49.030;8.714;2023-08-24T04:57:48;99261.91;;;25.56;52.02
7532;BME280;3807;49.030;8.714;2023-08-24T05:00:14;99262.41;;;25.60;51.96
7532;BME280;3807;49.030;8.714;2023-08-24T05:02:42;99256.00;;;25.54;52.07
7532;BME280;3807;49.030;8.714;2023-08-24T05:05:08;99251.47;;;25.56;51.96
7532;BME280;3807;49.030;8.714;2023-08-24T05:07:35;99232.81;;;25.51;52.01
7532;BME280;3807;49.030;8.714;2023-08-24T05:10:00;99241.09;;;25.47;52.17
7532;BME280;3807;49.030;8.714;2023-08-24T05:12:26;99243.72;;;25.47;52.20
7532;BME280;3807;49.030;8.714;2023-08-24T05:14:51;99243.84;;;25.45;52.18
7532;BME280;3807;49.030;8.714;2023-08-24T05:17:16;99250.84;;;25.45;52.25
7532;BME280;3807;49.030;8.714;2023-08-24T05:19:42;99241.41;;;25.43;52.29
7532;BME280;3807;49.030;8.714;2023-08-24T05:22:07;99249.38;;;25.42;52.35
7532;BME280;3807;49.030;8.714;2023-08-24T05:24:32;99236.47;;;25.40;52.37
7532;BME280;3807;49.030;8.714;2023-08-24T05:26:57;99241.69;;;25.40;52.37
7532;BME280;3807;49.030;8.714;2023-08-24T05:29:23;99250.19;;;25.42;52.29
7532;BME280;3807;49.030;8.714;2023-08-24T05:31:48;99256.34;;;25.41;52.28
7532;BME280;3807;49.030;8.714;2023-08-24T05:34:13;99259.94;;;25.40;52.37
7532;BME280;3807;49.030;8.714;2023-08-24T05:36:39;99259.28;;;25.38;52.39
7532;BME280;3807;49.030;8.714;2023-08-24T05:39:04;99257.50;;;25.39;52.30
7532;BME280;3807;49.030;8.714;2023-08-24T05:41:29;99260.53;;;25.34;52.14
7532;BME280;3807;49.030;8.714;2023-08-24T05:43:55;99253.69;;;25.33;52.36
7532;BME280;3807;49.030;8.714;2023-08-24T05:46:22;99248.75;;;25.30;52.47
7532;BME280;3807;49.030;8.714;2023-08-24T05:48:47;99255.59;;;25.31;52.40
7532;BME280;3807;49.030;8.714;2023-08-24T05:51:13;99258.94;;;25.24;52.45
7532;BME280;3807;49.030;8.714;2023-08-24T05:53:39;99259.63;;;25.26;52.21
7532;BME280;3807;49.030;8.714;2023-08-24T05:56:06;99262.53;;;25.23;52.19
7532;BME280;3807;49.030;8.714;2023-08-24T05:58:31;99273.78;;;25.23;52.29
7532;BME280;3807;49.030;8.714;2023-08-24T06:01:00;99270.19;;;25.24;51.88
7532;BME280;3807;49.030;8.714;2023-08-24T06:03:25;99283.84;;;25.08;52.64
7532;BME280;3807;49.030;8.714;2023-08-24T06:05:51;99290.97;;;25.16;52.37
7532;BME280;3807;49.030;8.714;2023-08-24T06:08:17;99296.84;;;25.18;52.20
7532;BME280;3807;49.030;8.714;2023-08-24T06:10:42;99320.97;;;25.20;51.79
7532;BME280;3807;49.030;8.714;2023-08-24T06:13:08;99336.31;;;25.23;52.43
7532;BME280;3807;49.030;8.714;2023-08-24T06:15:33;99349.22;;;25.25;52.40
7532;BME280;3807;49.030;8.714;2023-08-24T06:17:58;99365.81;;;25.24;52.35
7532;BME280;3807;49.030;8.714;2023-08-24T06:20:25;99375.31;;;25.25;52.41
7532;BME280;3807;49.030;8.714;2023-08-24T06:22:50;99380.94;;;25.20;52.27
7532;BME280;3807;49.030;8.714;2023-08-24T06:25:15;99380.09;;;25.19;52.69
7532;BME280;3807;49.030;8.714;2023-08-24T06:27:41;99390.81;;;25.16;52.72
7532;BME280;3807;49.030;8.714;2023-08-24T06:30:06;99386.56;;;25.15;52.84
7532;BME280;3807;49.030;8.714;2023-08-24T06:32:32;99391.34;;;25.10;52.88
7532;BME280;3807;49.030;8.714;2023-08-24T06:34:57;99381.25;;;25.07;52.93
7532;BME280;3807;49.030;8.714;2023-08-24T06:37:23;99378.06;;;25.13;52.83
7532;BME280;3807;49.030;8.714;2023-08-24T06:39:48;99358.44;;;25.09;53.28
7532;BME280;3807;49.030;8.714;2023-08-24T06:42:13;99341.56;;;25.13;53.08
7532;BME280;3807;49.030;8.714;2023-08-24T06:44:39;99338.97;;;25.13;52.84
7532;BME280;3807;49.030;8.714;2023-08-24T06:47:04;99350.63;;;25.09;53.52
7532;BME280;3807;49.030;8.714;2023-08-24T06:49:29;99363.81;;;25.08;53.51
7532;BME280;3807;49.030;8.714;2023-08-24T06:51:55;99353.22;;;25.09;53.51
7532;BME280;3807;49.030;8.714;2023-08-24T06:54:20;99331.03;;;25.05;53.45
7532;BME280;3807;49.030;8.714;2023-08-24T06:56:45;99324.31;;;25.03;53.58
7532;BME280;3807;49.030;8.714;2023-08-24T06:59:11;99321.94;;;25.09;53.45
7532;BME280;3807;49.030;8.714;2023-08-24T07:01:38;99312.63;;;25.07;53.17
7532;BME280;3807;49.030;8.714;2023-08-24T07:04:03;99312.63;;;25.07;53.29
7532;BME280;3807;49.030;8.714;2023-08-24T07:06:29;99312.50;;;25.08;53.48
7532;BME280;3807;49.030;8.714;2023-08-24T07:08:54;99313.16;;;25.10;53.37
7532;BME280;3807;49.030;8.714;2023-08-24T07:11:19;99324.03;;;25.06;53.22
7532;BME280;3807;49.030;8.714;2023-08-24T07:13:45;99340.91;;;25.11;53.25
7532;BME280;3807;49.030;8.714;2023-08-24T07:16:11;99346.13;;;25.11;53.17
7532;BME280;3807;49.030;8.714;2023-08-24T07:18:36;99336.09;;;25.07;53.18
7532;BME280;3807;49.030;8.714;2023-08-24T07:21:02;99317.47;;;25.11;53.33
7532;BME280;3807;49.030;8.714;2023-08-24T07:23:27;99311.69;;;25.08;53.32
7532;BME280;3807;49.030;8.714;2023-08-24T07:25:53;99309.75;;;25.10;53.49
7532;BME280;3807;49.030;8.714;2023-08-24T07:28:19;99314.13;;;25.09;53.39
7532;BME280;3807;49.030;8.714;2023-08-24T07:30:44;99304.69;;;25.08;53.37
7532;BME280;3807;49.030;8.714;2023-08-24T07:33:10;99305.25;;;25.02;53.29
7532;BME280;3807;49.030;8.714;2023-08-24T07:35:36;99312.78;;;25.05;53.37
7532;BME280;3807;49.030;8.714;2023-08-24T07:38:01;99312.25;;;25.11;53.19
7532;BME280;3807;49.030;8.714;2023-08-24T07:40:30;99310.47;;;25.12;53.27
7532;BME280;3807;49.030;8.714;2023-08-24T07:42:55;99303.75;;;25.00;52.80
7532;BME280;3807;49.030;8.714;2023-08-24T07:45:21;99314.94;;;25.10;53.03
7532;BME280;3807;49.030;8.714;2023-08-24T07:47:48;99315.41;;;25.05;52.78
7532;BME280;3807;49.030;8.714;2023-08-24T07:50:14;99311.00;;;25.06;53.38
7532;BME280;3807;49.030;8.714;2023-08-24T07:52:42;99307.41;;;25.16;52.85
7532;BME280;3807;49.030;8.714;2023-08-24T07:55:08;99308.66;;;25.12;53.15
7532;BME280;3807;49.030;8.714;2023-08-24T07:57:34;99313.06;;;25.12;52.96
7532;BME280;3807;49.030;8.714;2023-08-24T08:00:00;99317.47;;;25.11;52.82
7532;BME280;3807;49.030;8.714;2023-08-24T08:02:26;99310.72;;;25.18;52.79
7532;BME280;3807;49.030;8.714;2023-08-24T08:04:55;99315.37;;;25.15;52.58
7532;BME280;3807;49.030;8.714;2023-08-24T08:07:22;99313.16;;;25.20;52.80
7532;BME280;3807;49.030;8.714;2023-08-24T08:09:47;99311.38;;;25.21;52.71
7532;BME280;3807;49.030;8.714;2023-08-24T08:12:12;99323.56;;;25.20;53.01
7532;BME280;3807;49.030;8.714;2023-08-24T08:14:38;99323.16;;;25.25;52.92
7532;BME280;3807;49.030;8.714;2023-08-24T08:17:03;99323.28;;;25.23;52.63
7532;BME280;3807;49.030;8.714;2023-08-24T08:19:28;99316.81;;;25.27;52.42
7532;BME280;3807;49.030;8.714;2023-08-24T08:21:54;99322.69;;;25.39;52.19
7532;BME280;3807;49.030;8.714;2023-08-24T08:24:19;99321.22;;;25.27;52.46
7532;BME280;3807;49.030;8.714;2023-08-24T08:26:44;99319.28;;;25.29;52.45
7532;BME280;3807;49.030;8.714;2023-08-24T08:29:10;99324.47;;;25.38;52.59
7532;BME280;3807;49.030;8.714;2023-08-24T08:31:35;99310.94;;;25.53;52.52
7532;BME280;3807;49.030;8.714;2023-08-24T08:34:01;99302.09;;;25.36;52.58
7532;BME280;3807;49.030;8.714;2023-08-24T08:36:26;99293.09;;;25.48;52.27
7532;BME280;3807;49.030;8.714;2023-08-24T08:38:52;99303.53;;;25.48;52.28
7532;BME280;3807;49.030;8.714;2023-08-24T08:41:21;99301.84;;;25.57;52.49
7532;BME280;3807;49.030;8.714;2023-08-24T08:43:47;99306.75;;;25.60;52.36
7532;BME280;3807;49.030;8.714;2023-08-24T08:46:14;99301.25;;;25.63;52.13
7532;BME280;3807;49.030;8.714;2023-08-24T08:48:41;99296.75;;;25.73;52.12
7532;BME280;3807;49.030;8.714;2023-08-24T08:51:07;99292.75;;;25.79;52.61
7532;BME280;3807;49.030;8.714;2023-08-24T08:53:33;99286.16;;;25.84;52.29
7532;BME280;3807;49.030;8.714;2023-08-24T08:56:00;99294.69;;;25.77;52.43
7532;BME280;3807;49.030;8.714;2023-08-24T08:58:29;99290.69;;;25.82;52.27
7532;BME280;3807;49.030;8.714;2023-08-24T09:00:56;99270.09;;;25.97;52.84
7532;BME280;3807;49.030;8.714;2023-08-24T09:03:26;99263.25;;;25.96;52.76
7532;BME280;3807;49.030;8.714;2023-08-24T09:05:52;99258.28;;;26.11;52.36
7532;BME280;3807;49.030;8.714;2023-08-24T09:08:18;99258.75;;;26.06;52.62
7532;BME280;3807;49.030;8.714;2023-08-24T09:10:44;99237.78;;;26.16;52.68
7532;BME280;3807;49.030;8.714;2023-08-24T09:13:10;99246.06;;;26.11;52.81
7532;BME280;3807;49.030;8.714;2023-08-24T09:15:35;99237.00;;;26.24;52.64
7532;BME280;3807;49.030;8.714;2023-08-24T09:18:02;99222.16;;;26.24;52.77
7532;BME280;3807;49.030;8.714;2023-08-24T09:20:28;99225.00;;;26.39;52.50
7532;BME280;3807;49.030;8.714;2023-08-24T09:22:58;99216.87;;;26.42;52.67
7532;BME280;3807;49.030;8.714;2023-08-24T09:25:24;99221.50;;;26.48;52.59
7532;BME280;3807;49.030;8.714;2023-08-24T09:28:01;99222.22;;;26.58;52.28
7532;BME280;3807;49.030;8.714;2023-08-24T09:30:36;99212.25;;;26.54;52.47
7532;BME280;3807;49.030;8.714;2023-08-24T09:33:09;99205.59;;;26.68;52.52
7532;BME280;3807;49.030;8.714;2023-08-24T09:35:35;99193.87;;;26.72;52.37
7532;BME280;3807;49.030;8.714;2023-08-24T09:38:18;99183.59;;;26.78;52.25
7532;BME280;3807;49.030;8.714;2023-08-24T09:40:50;99179.19;;;26.87;52.15
7532;BME280;3807;49.030;8.714;2023-08-24T09:43:17;99169.28;;;26.99;52.35
7532;BME280;3807;49.030;8.714;2023-08-24T09:46:12;99174.66;;;27.05;52.02
7532;BME280;3807;49.030;8.714;2023-08-24T09:52:28;99158.50;;;27.10;52.00
7532;BME280;3807;49.030;8.714;2023-08-24T09:55:09;99151.53;;;27.27;51.87
7532;BME280;3807;49.030;8.714;2023-08-24T09:57:43;99147.44;;;27.24;51.95
7532;BME280;3807;49.030;8.714;2023-08-24T10:00:35;99141.22;;;27.34;51.84
7532;BME280;3807;49.030;8.714;2023-08-24T10:03:04;99130.28;;;27.38;51.72
7532;BME280;3807;49.030;8.714;2023-08-24T10:05:36;99128.31;;;27.32;51.79
7532;BME280;3807;49.030;8.714;2023-08-24T10:08:03;99121.75;;;27.61;51.42
7532;BME280;3807;49.030;8.714;2023-08-24T10:10:29;99117.03;;;27.56;51.29
7532;BME280;3807;49.030;8.714;2023-08-24T10:13:08;99125.37;;;27.76;51.22
7532;BME280;3807;49.030;8.714;2023-08-24T10:15:38;99118.16;;;27.86;51.05
7532;BME280;3807;49.030;8.714;2023-08-24T10:18:15;99100.97;;;27.67;51.42
7532;BME280;3807;49.030;8.714;2023-08-24T10:20:42;99117.25;;;28.10;50.64
7532;BME280;3807;49.030;8.714;2023-08-24T10:23:10;99116.59;;;28.16;50.81
7532;BME280;3807;49.030;8.714;2023-08-24T10:25:37;99113.62;;;28.19;50.64
7532;BME280;3807;49.030;8.714;2023-08-24T10:28:04;99101.41;;;28.51;50.30
7532;BME280;3807;49.030;8.714;2023-08-24T10:30:30;99096.00;;;28.53;50.01
7532;BME280;3807;49.030;8.714;2023-08-24T10:32:58;99097.56;;;28.62;49.65
7532;BME280;3807;49.030;8.714;2023-08-24T10:35:25;99085.19;;;28.79;49.34
7532;BME280;3807;49.030;8.714;2023-08-24T10:37:52;99069.94;;;28.82;48.96
7532;BME280;3807;49.030;8.714;2023-08-24T10:40:32;99081.34;;;28.89;48.87
7532;BME280;3807;49.030;8.714;2023-08-24T10:42:57;99076.41;;;28.94;48.44
7532;BME280;3807;49.030;8.714;2023-08-24T10:45:24;99069.00;;;29.21;48.67
7532;BME280;3807;49.030;8.714;2023-08-24T10:47:52;99066.91;;;29.16;48.42
7532;BME280;3807;49.030;8.714;2023-08-24T10:50:19;99065.78;;;29.34;48.02
7532;BME280;3807;49.030;8.714;2023-08-24T10:52:44;99050.13;;;29.26;48.15
7532;BME280;3807;49.030;8.714;2023-08-24T10:55:24;99051.31;;;29.38;47.92
7532;BME280;3807;49.030;8.714;2023-08-24T10:57:59;99048.28;;;29.64;46.98
7532;BME280;3807;49.030;8.714;2023-08-24T11:00:29;99045.56;;;29.72;47.24
7532;BME280;3807;49.030;8.714;2023-08-24T11:02:57;99045.38;;;30.03;46.32
7532;BME280;3807;49.030;8.714;2023-08-24T11:05:24;99046.00;;;30.20;45.97
7532;BME280;3807;49.030;8.714;2023-08-24T11:07:54;99048.81;;;30.19;46.36
7532;BME280;3807;49.030;8.714;2023-08-24T11:10:21;99037.97;;;30.43;45.65
7532;BME280;3807;49.030;8.714;2023-08-24T11:13:06;99040.16;;;30.61;45.48
7532;BME280;3807;49.030;8.714;2023-08-24T11:15:34;99036.84;;;30.74;45.22
7532;BME280;3807;49.030;8.714;2023-08-24T11:20:37;99029.16;;;30.72;45.82
7532;BME280;3807;49.030;8.714;2023-08-24T11:23:02;99024.72;;;30.94;45.17
7532;BME280;3807;49.030;8.714;2023-08-24T11:25:28;99025.44;;;31.09;44.93
7532;BME280;3807;49.030;8.714;2023-08-24T11:27:54;99023.28;;;31.20;44.92
7532;BME280;3807;49.030;8.714;2023-08-24T11:30:19;99020.59;;;31.35;44.49
7532;BME280;3807;49.030;8.714;2023-08-24T11:32:44;99020.59;;;31.35;44.68
7532;BME280;3807;49.030;8.714;2023-08-24T11:35:18;99009.75;;;31.51;44.54
7532;BME280;3807;49.030;8.714;2023-08-24T11:37:43;99013.13;;;31.79;43.75
7532;BME280;3807;49.030;8.714;2023-08-24T11:40:16;99012.84;;;31.96;43.65
7532;BME280;3807;49.030;8.714;2023-08-24T11:42:42;99018.22;;;32.22;42.92
7532;BME280;3807;49.030;8.714;2023-08-24T11:45:13;99000.16;;;32.19;43.29
7532;BME280;3807;49.030;8.714;2023-08-24T11:47:40;98997.75;;;32.38;43.03
7532;BME280;3807;49.030;8.714;2023-08-24T11:50:06;98993.34;;;32.58;42.52
7532;BME280;3807;49.030;8.714;2023-08-24T11:52:31;98993.13;;;32.53;42.82
7532;BME280;3807;49.030;8.714;2023-08-24T11:55:00;98987.87;;;32.73;42.49
7532;BME280;3807;49.030;8.714;2023-08-24T11:57:26;98990.31;;;32.81;42.40
7532;BME280;3807;49.030;8.714;2023-08-24T11:59:53;99000.47;;;33.11;41.71
7532;BME280;3807;49.030;8.714;2023-08-24T12:02:20;98992.75;;;33.16;41.59
7532;BME280;3807;49.030;8.714;2023-08-24T12:04:48;98988.22;;;33.50;40.90
7532;BME280;3807;49.030;8.714;2023-08-24T12:07:14;98991.66;;;33.43;41.61
7532;BME280;3807;49.030;8.714;2023-08-24T12:09:44;98985.78;;;33.61;40.55
7532;BME280;3807;49.030;8.714;2023-08-24T12:12:17;98983.75;;;33.50;41.13
7532;BME280;3807;49.030;8.714;2023-08-24T12:14:44;98976.22;;;33.60;41.35
7532;BME280;3807;49.030;8.714;2023-08-24T12:17:11;98961.53;;;33.71;41.27
7532;BME280;3807;49.030;8.714;2023-08-24T12:19:36;98950.97;;;33.71;40.83
7532;BME280;3807;49.030;8.714;2023-08-24T12:22:02;98942.94;;;33.98;40.38
7532;BME280;3807;49.030;8.714;2023-08-24T12:24:28;98935.34;;;34.14;40.00
7532;BME280;3807;49.030;8.714;2023-08-24T12:26:57;98928.16;;;34.22;40.28
7532;BME280;3807;49.030;8.714;2023-08-24T12:29:23;98923.84;;;34.27;40.00
7532;BME280;3807;49.030;8.714;2023-08-24T12:31:49;98921.84;;;34.48;39.78
7532;BME280;3807;49.030;8.714;2023-08-24T12:34:15;98914.66;;;34.61;39.41
7532;BME280;3807;49.030;8.714;2023-08-24T12:36:41;98909.84;;;34.77;39.22
7532;BME280;3807;49.030;8.714;2023-08-24T12:39:11;98904.03;;;34.87;39.37
7532;BME280;3807;49.030;8.714;2023-08-24T12:41:38;98906.75;;;34.80;39.68
7532;BME280;3807;49.030;8.714;2023-08-24T12:44:04;98898.03;;;34.98;39.26
7532;BME280;3807;49.030;8.714;2023-08-24T12:46:33;98891.59;;;34.69;40.21
7532;BME280;3807;49.030;8.714;2023-08-24T12:49:00;98892.03;;;35.09;38.62
7532;BME280;3807;49.030;8.714;2023-08-24T12:51:26;98885.03;;;35.15;38.96
7532;BME280;3807;49.030;8.714;2023-08-24T12:53:51;98888.13;;;35.30;38.87
7532;BME280;3807;49.030;8.714;2023-08-24T12:56:16;98878.34;;;35.30;39.11
7532;BME280;3807;49.030;8.714;2023-08-24T12:58:42;98871.34;;;35.36;39.26
7532;BME280;3807;49.030;8.714;2023-08-24T13:01:07;98860.06;;;35.59;38.58
7532;BME280;3807;49.030;8.714;2023-08-24T13:03:33;98858.37;;;35.65;38.29
7532;BME280;3807;49.030;8.714;2023-08-24T13:05:58;98870.47;;;35.72;38.46
7532;BME280;3807;49.030;8.714;2023-08-24T13:08:24;98862.16;;;35.69;38.83
7532;BME280;3807;49.030;8.714;2023-08-24T13:10:51;98858.63;;;35.75;38.77
7532;BME280;3807;49.030;8.714;2023-08-24T13:13:17;98859.44;;;36.06;38.20
7532;BME280;3807;49.030;8.714;2023-08-24T13:15:42;98857.00;;;36.16;37.79
7532;BME280;3807;49.030;8.714;2023-08-24T13:18:07;98854.94;;;36.06;38.39
7532;BME280;3807;49.030;8.714;2023-08-24T13:20:33;98852.84;;;36.08;38.44
7532;BME280;3807;49.030;8.714;2023-08-24T13:22:58;98840.09;;;35.98;38.61
7532;BME280;3807;49.030;8.714;2023-08-24T13:25:24;98832.00;;;36.23;37.73
7532;BME280;3807;49.030;8.714;2023-08-24T13:27:49;98838.09;;;36.36;38.11
7532;BME280;3807;49.030;8.714;2023-08-24T13:30:14;98827.37;;;36.42;38.06
7532;BME280;3807;49.030;8.714;2023-08-24T13:32:40;98829.59;;;36.57;37.84